Time;durP1;ratioP1;P1;durP2;ratioP2;P2;SDS_P1;SDS_P2;PMS_P1;PMS_P2;Temp;Humidity;BMP_temperature;BMP_pressure;BME280_temperature;BME280_humidity;BME280_pressure;Samples;Min_cycle;Max_cycle;Signal;HPM_P1;HPM_P2
2023/05/18 00:00:57;;;;;;;11.63;4.65;;;9.30;94.20;;;;;;5008526;28;20034;-47
2023/05/18 00:03:43;;;;;;;13.80;4.43;;;9.20;94.30;;;;;;5012327;28;20483;-47
2023/05/18 00:06:29;;;;;;;10.52;5.28;;;9.20;94.40;;;;;;5012413;28;20042;-49
2023/05/18 00:09:15;;;;;;;10.73;4.93;;;9.10;94.50;;;;;;5012372;28;20030;-52
2023/05/18 00:12:03;;;;;;;12.05;4.53;;;9.20;94.50;;;;;;5012041;28;20034;-47
2023/05/18 00:14:49;;;;;;;11.38;5.43;;;9.20;94.30;;;;;;5012512;28;20040;-49
2023/05/18 00:17:35;;;;;;;10.63;5.85;;;9.20;94.40;;;;;;5012669;28;20124;-47
2023/05/18 00:20:25;;;;;;;12.88;5.78;;;9.10;94.70;;;;;;5008291;28;20041;-48
2023/05/18 00:23:15;;;;;;;11.75;5.03;;;9.10;94.90;;;;;;5012426;28;20030;-52
2023/05/18 00:26:01;;;;;;;14.80;6.38;;;9.10;94.90;;;;;;5012491;28;20109;-49
2023/05/18 00:28:47;;;;;;;15.02;4.43;;;9.00;94.90;;;;;;5012485;28;20018;-46
2023/05/18 00:31:35;;;;;;;10.35;4.95;;;8.90;95.10;;;;;;5011475;28;20406;-48
2023/05/18 00:34:20;;;;;;;12.57;5.30;;;8.90;95.00;;;;;;5012357;28;20109;-47
2023/05/18 00:37:06;;;;;;;12.10;5.47;;;8.90;95.20;;;;;;5011165;28;20453;-46
2023/05/18 00:39:52;;;;;;;13.00;5.05;;;8.90;95.20;;;;;;5012418;28;20034;-47
2023/05/18 00:42:38;;;;;;;13.25;5.10;;;8.90;95.20;;;;;;5012242;28;20421;-47
2023/05/18 00:45:25;;;;;;;10.55;5.05;;;8.80;95.50;;;;;;5012222;28;20018;-47
2023/05/18 00:48:11;;;;;;;16.45;5.30;;;8.80;95.50;;;;;;5011224;28;20383;-47
2023/05/18 00:50:57;;;;;;;11.90;5.43;;;8.80;95.50;;;;;;5011794;28;20030;-47
2023/05/18 00:53:43;;;;;;;13.85;5.90;;;8.70;95.40;;;;;;5012005;28;20029;-45
2023/05/18 00:56:32;;;;;;;14.07;5.30;;;8.80;95.60;;;;;;5012171;28;20036;-46
2023/05/18 00:59:19;;;;;;;9.95;5.63;;;8.80;95.70;;;;;;5011913;28;20116;-48
2023/05/18 01:02:05;;;;;;;9.85;4.80;;;8.80;95.70;;;;;;5011874;28;20085;-48
2023/05/18 01:04:51;;;;;;;12.10;5.22;;;8.80;95.70;;;;;;5011945;28;20038;-47
2023/05/18 01:07:41;;;;;;;11.30;5.45;;;8.80;95.70;;;;;;5011581;28;20383;-47
2023/05/18 01:10:27;;;;;;;12.57;5.40;;;8.70;95.90;;;;;;5010873;28;20026;-48
2023/05/18 01:13:38;;;;;;;10.27;4.93;;;8.50;96.30;;;;;;5011390;28;20088;-48
2023/05/18 01:16:36;;;;;;;10.77;4.85;;;8.60;96.20;;;;;;5010326;28;20057;-51
2023/05/18 01:19:40;;;;;;;12.40;5.43;;;8.50;96.40;;;;;;5010833;28;20026;-48
2023/05/18 01:22:43;;;;;;;11.35;5.10;;;8.70;96.20;;;;;;5011423;28;20037;-47
2023/05/18 01:25:41;;;;;;;12.93;5.20;;;8.60;96.30;;;;;;5011504;28;20096;-46
2023/05/18 01:28:31;;;;;;;14.15;5.00;;;8.70;96.00;;;;;;5010804;28;20030;-49
2023/05/18 01:31:17;;;;;;;7.97;4.50;;;8.70;96.50;;;;;;5011534;28;20410;-49
2023/05/18 01:34:03;;;;;;;12.57;5.22;;;8.60;96.50;;;;;;5011165;28;20084;-48
2023/05/18 01:36:49;;;;;;;16.30;5.03;;;8.70;96.40;;;;;;5010526;28;20495;-51
2023/05/18 01:39:35;;;;;;;13.43;5.97;;;8.70;96.30;;;;;;5010950;28;20022;-46
2023/05/18 01:42:26;;;;;;;18.73;6.47;;;8.70;96.50;;;;;;5011597;28;20034;-50
2023/05/18 01:45:20;;;;;;;13.70;5.55;;;8.60;96.50;;;;;;5011750;28;20112;-46
2023/05/18 01:48:08;;;;;;;13.43;5.75;;;8.60;96.50;;;;;;5011706;28;20524;-47
2023/05/18 01:50:57;;;;;;;11.57;5.65;;;8.60;96.70;;;;;;5011317;28;20033;-46
2023/05/18 01:53:50;;;;;;;12.75;4.70;;;8.60;96.40;;;;;;5011382;28;20026;-47
2023/05/18 01:56:37;;;;;;;15.38;5.35;;;8.60;96.60;;;;;;5010629;28;20037;-45
2023/05/18 01:59:24;;;;;;;9.85;5.15;;;8.50;96.80;;;;;;5010573;28;20070;-48
2023/05/18 02:02:10;;;;;;;11.68;4.47;;;8.60;96.80;;;;;;5010768;28;20029;-49
2023/05/18 02:04:56;;;;;;;10.18;4.70;;;8.60;96.80;;;;;;5011016;28;20480;-45
2023/05/18 02:07:42;;;;;;;15.27;5.60;;;8.50;96.80;;;;;;5011180;28;20124;-48
2023/05/18 02:10:28;;;;;;;11.85;5.82;;;8.50;96.70;;;;;;5011905;28;20026;-48
2023/05/18 02:13:14;;;;;;;9.13;5.10;;;8.50;97.10;;;;;;5011339;28;20125;-47
2023/05/18 02:16:02;;;;;;;10.32;4.88;;;8.50;96.90;;;;;;5010236;28;20040;-48
2023/05/18 02:18:48;;;;;;;12.32;5.13;;;8.50;97.10;;;;;;5014154;28;20435;-48
2023/05/18 02:21:34;;;;;;;10.90;5.13;;;8.60;97.30;;;;;;5014786;28;20458;-46
2023/05/18 02:24:21;;;;;;;12.82;4.97;;;8.60;97.00;;;;;;5014777;28;20026;-48
2023/05/18 02:27:07;;;;;;;11.20;4.75;;;8.50;97.10;;;;;;5014584;28;20038;-47
2023/05/18 02:29:53;;;;;;;10.80;5.10;;;8.50;97.20;;;;;;5014248;28;20030;-47
2023/05/18 02:32:41;;;;;;;12.32;5.25;;;8.50;97.10;;;;;;5014364;28;20041;-49
2023/05/18 02:35:27;;;;;;;11.77;5.45;;;8.50;96.90;;;;;;5014865;28;20125;-47
2023/05/18 02:38:13;;;;;;;14.43;5.97;;;8.40;97.40;;;;;;5013999;28;20080;-47
2023/05/18 02:40:59;;;;;;;12.30;5.18;;;8.30;97.50;;;;;;5013877;28;20092;-49
2023/05/18 02:43:45;;;;;;;15.52;5.25;;;8.30;97.50;;;;;;5014310;28;20114;-48
2023/05/18 02:46:31;;;;;;;14.43;5.18;;;8.40;97.60;;;;;;5013437;28;20038;-48
2023/05/18 02:49:17;;;;;;;10.15;5.30;;;8.20;97.80;;;;;;5014688;28;20026;-49
2023/05/18 02:52:03;;;;;;;13.80;5.20;;;8.20;98.00;;;;;;5014193;28;20033;-49
2023/05/18 02:54:49;;;;;;;16.73;4.80;;;8.30;98.00;;;;;;5014396;28;20034;-50
2023/05/18 02:57:35;;;;;;;13.18;4.75;;;8.30;97.90;;;;;;5013817;28;20406;-49
2023/05/18 03:00:22;;;;;;;13.75;5.43;;;8.40;97.70;;;;;;5013970;28;20574;-48
2023/05/18 03:03:14;;;;;;;13.25;5.40;;;8.40;97.70;;;;;;5013341;28;20478;-47
2023/05/18 03:06:04;;;;;;;9.05;4.30;;;8.40;98.00;;;;;;5013762;28;20029;-48
2023/05/18 03:08:53;;;;;;;11.77;4.57;;;8.30;97.80;;;;;;5014186;28;20026;-49
2023/05/18 03:11:39;;;;;;;11.02;4.85;;;8.30;97.70;;;;;;5013420;28;20026;-47
2023/05/18 03:14:24;;;;;;;8.55;4.30;;;8.30;97.90;;;;;;5013774;28;20033;-47
2023/05/18 03:17:10;;;;;;;12.30;5.20;;;8.40;97.90;;;;;;5013371;28;20026;-47
2023/05/18 03:19:56;;;;;;;13.00;4.20;;;8.40;97.80;;;;;;5012857;28;20117;-48
2023/05/18 03:22:42;;;;;;;15.50;4.28;;;8.30;97.80;;;;;;5012330;28;20085;-47
2023/05/18 03:25:29;;;;;;;14.70;4.65;;;8.40;97.70;;;;;;4994059;28;20038;-49
2023/05/18 03:28:15;;;;;;;12.63;4.55;;;8.30;97.80;;;;;;4993766;28;20399;-46
2023/05/18 03:31:01;;;;;;;16.65;4.70;;;8.40;97.80;;;;;;5003175;28;20036;-46
2023/05/18 03:33:47;;;;;;;9.35;4.20;;;8.40;97.70;;;;;;5013487;28;20035;-48
2023/05/18 03:36:34;;;;;;;10.57;4.20;;;8.40;97.80;;;;;;5012389;28;20058;-47
2023/05/18 03:39:20;;;;;;;13.10;4.47;;;8.40;98.00;;;;;;5012831;28;20029;-46
2023/05/18 03:42:06;;;;;;;11.90;4.53;;;8.30;97.90;;;;;;5012545;28;20117;-46
2023/05/18 03:44:52;;;;;;;8.27;4.00;;;8.30;98.10;;;;;;5013432;28;20018;-46
2023/05/18 03:47:39;;;;;;;10.57;4.22;;;8.20;98.20;;;;;;5012794;28;20026;-47
2023/05/18 03:50:25;;;;;;;12.88;4.90;;;8.10;98.40;;;;;;5012808;28;20120;-47
2023/05/18 03:53:11;;;;;;;11.65;4.00;;;8.10;98.40;;;;;;5013482;28;20034;-47
2023/05/18 03:55:57;;;;;;;12.88;4.55;;;8.10;98.60;;;;;;5012610;28;20030;-48
2023/05/18 03:58:44;;;;;;;15.38;4.35;;;8.20;98.50;;;;;;5012868;28;20510;-48
2023/05/18 04:01:33;;;;;;;12.07;5.38;;;8.20;98.50;;;;;;5012432;28;20038;-46
2023/05/18 04:04:22;;;;;;;12.93;4.82;;;8.30;98.40;;;;;;5011651;28;20376;-47
2023/05/18 04:07:08;;;;;;;14.10;5.50;;;8.30;98.30;;;;;;5012583;28;20045;-47
2023/05/18 04:09:55;;;;;;;12.38;4.82;;;8.30;98.30;;;;;;5012937;28;20487;-46
2023/05/18 04:12:41;;;;;;;12.68;4.75;;;8.40;98.30;;;;;;5012767;28;20041;-46
2023/05/18 04:15:27;;;;;;;10.48;4.80;;;8.40;98.20;;;;;;5013008;28;20113;-45
2023/05/18 04:18:13;;;;;;;8.68;4.57;;;8.50;98.00;;;;;;5012019;28;20037;-46
2023/05/18 04:20:59;;;;;;;11.95;4.30;;;8.50;98.10;;;;;;5012848;28;20030;-46
2023/05/18 04:23:46;;;;;;;9.02;4.15;;;8.40;98.20;;;;;;5012597;28;20030;-47
2023/05/18 04:26:37;;;;;;;10.55;4.15;;;8.50;98.10;;;;;;5012801;28;20041;-47
2023/05/18 04:29:23;;;;;;;14.82;4.70;;;8.60;98.00;;;;;;5012765;28;20021;-46
2023/05/18 04:32:10;;;;;;;12.88;5.10;;;8.70;97.80;;;;;;5012973;28;20052;-46
2023/05/18 04:34:57;;;;;;;9.45;5.15;;;8.70;98.00;;;;;;5012914;28;20076;-47
2023/05/18 04:37:43;;;;;;;12.48;4.70;;;8.70;97.80;;;;;;5011924;28;20056;-46
2023/05/18 04:40:32;;;;;;;9.95;4.50;;;8.70;97.90;;;;;;5011573;28;20025;-46
2023/05/18 04:43:19;;;;;;;10.55;4.70;;;8.70;97.90;;;;;;5012231;28;20029;-48
2023/05/18 04:46:05;;;;;;;7.25;4.18;;;8.60;98.10;;;;;;4993625;28;20026;-47
2023/05/18 04:48:56;;;;;;;12.43;4.32;;;8.80;97.90;;;;;;4993027;28;20057;-47
2023/05/18 04:51:45;;;;;;;9.40;4.60;;;8.80;97.80;;;;;;4994185;28;20050;-50
2023/05/18 04:54:31;;;;;;;19.58;5.05;;;8.90;97.70;;;;;;4993883;28;20070;-47
2023/05/18 04:57:17;;;;;;;8.57;3.80;;;9.00;97.70;;;;;;4993127;28;20403;-46
2023/05/18 05:00:04;;;;;;;10.52;4.90;;;9.10;97.30;;;;;;5009281;28;20034;-48
2023/05/18 05:02:51;;;;;;;11.23;4.63;;;9.20;97.30;;;;;;5012193;28;20030;-46
2023/05/18 05:05:36;;;;;;;11.00;5.00;;;9.20;97.20;;;;;;5011884;28;20030;-48
2023/05/18 05:08:22;;;;;;;9.75;4.10;;;9.20;97.30;;;;;;5012471;28;20075;-48
2023/05/18 05:11:11;;;;;;;12.77;4.50;;;9.30;97.20;;;;;;5011033;28;20030;-49
2023/05/18 05:13:57;;;;;;;8.75;4.20;;;9.40;97.00;;;;;;5013085;28;20037;-47
2023/05/18 05:16:43;;;;;;;9.70;3.90;;;9.40;97.00;;;;;;5010359;28;20030;-48
2023/05/18 05:19:29;;;;;;;11.68;4.43;;;9.50;96.90;;;;;;5011740;28;20084;-50
2023/05/18 05:22:16;;;;;;;11.50;3.92;;;9.70;97.00;;;;;;5011505;28;20033;-46
2023/05/18 05:25:03;;;;;;;9.52;3.65;;;9.80;96.70;;;;;;5011360;28;20030;-47
2023/05/18 05:27:49;;;;;;;13.68;4.45;;;10.00;96.30;;;;;;5010934;28;20027;-49
2023/05/18 05:30:35;;;;;;;10.02;5.22;;;10.00;95.80;;;;;;5011996;28;20030;-47
2023/05/18 05:33:21;;;;;;;11.35;4.45;;;9.90;95.70;;;;;;5011612;28;20056;-47
2023/05/18 05:36:07;;;;;;;10.80;3.72;;;9.90;96.10;;;;;;5011954;28;20119;-47
2023/05/18 05:38:53;;;;;;;12.50;6.43;;;10.00;96.10;;;;;;5011566;28;20065;-47
2023/05/18 05:41:39;;;;;;;11.18;4.28;;;10.20;96.20;;;;;;5011169;28;20092;-47
2023/05/18 05:44:25;;;;;;;9.65;4.95;;;10.40;95.70;;;;;;5011611;28;20037;-47
2023/05/18 05:47:11;;;;;;;11.95;4.28;;;10.50;95.40;;;;;;5010887;28;20030;-47
2023/05/18 05:49:57;;;;;;;11.05;4.40;;;10.70;94.80;;;;;;5011760;28;20030;-50
2023/05/18 05:52:42;;;;;;;10.63;4.78;;;10.70;94.90;;;;;;5015122;28;20471;-47
2023/05/18 05:55:28;;;;;;;9.02;4.30;;;10.50;94.80;;;;;;5017407;28;20482;-47
2023/05/18 05:58:14;;;;;;;8.57;4.78;;;10.50;95.20;;;;;;5016887;28;20037;-52
2023/05/18 06:01:01;;;;;;;11.23;4.10;;;10.60;95.10;;;;;;5016874;28;20091;-49
2023/05/18 06:03:47;;;;;;;12.70;4.35;;;10.50;94.70;;;;;;5017308;28;20037;-49
2023/05/18 06:06:33;;;;;;;13.30;4.80;;;10.50;95.00;;;;;;5018891;28;20089;-49
2023/05/18 06:09:19;;;;;;;15.15;5.88;;;10.60;94.90;;;;;;5020870;28;20022;-51
2023/05/18 06:12:06;;;;;;;10.25;5.85;;;10.70;94.80;;;;;;5022511;28;20108;-49
2023/05/18 06:14:56;;;;;;;7.15;3.92;;;10.70;94.50;;;;;;5024237;28;20041;-49
2023/05/18 06:17:42;;;;;;;9.10;4.05;;;10.70;94.50;;;;;;5015321;28;20034;-46
2023/05/18 06:20:28;;;;;;;11.68;4.47;;;10.70;94.50;;;;;;5014644;28;20430;-47
2023/05/18 06:23:14;;;;;;;9.13;4.75;;;10.80;95.20;;;;;;5013853;28;20484;-51
2023/05/18 06:26:01;;;;;;;9.30;3.70;;;10.90;94.80;;;;;;5015986;28;20023;-50
2023/05/18 06:28:47;;;;;;;10.30;4.30;;;11.00;94.90;;;;;;5014062;28;20026;-48
2023/05/18 06:31:33;;;;;;;16.85;5.07;;;11.10;95.10;;;;;;5014676;28;20037;-47
2023/05/18 06:34:19;;;;;;;7.38;4.03;;;11.30;94.80;;;;;;5015029;28;20036;-51
2023/05/18 06:37:05;;;;;;;10.77;4.03;;;11.40;94.20;;;;;;5014622;28;20033;-50
2023/05/18 06:39:51;;;;;;;11.23;4.40;;;11.50;94.40;;;;;;5014044;28;20037;-51
2023/05/18 06:42:37;;;;;;;12.57;4.43;;;11.30;94.20;;;;;;5013321;28;20033;-46
2023/05/18 06:45:23;;;;;;;10.23;3.80;;;11.30;94.80;;;;;;5014878;28;20076;-47
2023/05/18 06:48:09;;;;;;;11.43;4.75;;;11.50;94.50;;;;;;5014342;28;20053;-46
2023/05/18 06:50:55;;;;;;;22.80;11.32;;;11.50;94.20;;;;;;5014477;28;20026;-48
2023/05/18 06:53:42;;;;;;;15.15;5.40;;;11.60;94.30;;;;;;5015408;28;20059;-48
2023/05/18 06:56:27;;;;;;;14.75;4.20;;;11.60;94.60;;;;;;5014171;28;20050;-47
2023/05/18 06:59:13;;;;;;;8.88;3.92;;;11.80;94.20;;;;;;5014058;28;20041;-47
2023/05/18 07:01:59;;;;;;;14.25;4.72;;;11.90;94.10;;;;;;5013786;28;20129;-49
2023/05/18 07:04:46;;;;;;;11.30;4.05;;;11.70;93.80;;;;;;5013373;28;20402;-46
2023/05/18 07:07:32;;;;;;;12.65;4.97;;;11.60;94.10;;;;;;5013822;28;20023;-48
2023/05/18 07:10:21;;;;;;;11.43;4.20;;;11.90;94.20;;;;;;5014567;28;20645;-48
2023/05/18 07:13:07;;;;;;;13.30;4.60;;;12.10;94.00;;;;;;5014224;28;20517;-48
2023/05/18 07:15:53;;;;;;;10.35;3.80;;;12.20;93.50;;;;;;5013584;28;20037;-47
2023/05/18 07:18:40;;;;;;;9.63;3.78;;;12.20;92.80;;;;;;5014168;28;20080;-48
2023/05/18 07:21:26;;;;;;;12.45;4.43;;;12.20;93.40;;;;;;5014246;28;20478;-47
2023/05/18 07:24:12;;;;;;;12.82;4.35;;;12.40;93.60;;;;;;5013302;28;20034;-46
2023/05/18 07:26:58;;;;;;;10.68;4.78;;;12.50;93.00;;;;;;5014319;28;20105;-47
2023/05/18 07:29:44;;;;;;;11.90;3.95;;;12.60;93.10;;;;;;5014850;28;20390;-49
2023/05/18 07:32:31;;;;;;;11.38;4.55;;;12.90;92.50;;;;;;5014018;28;20026;-49
2023/05/18 07:35:20;;;;;;;9.60;4.18;;;12.90;92.30;;;;;;5013516;28;20510;-45
2023/05/18 07:38:06;;;;;;;10.57;3.50;;;12.90;92.00;;;;;;4998945;28;20140;-49
2023/05/18 07:40:52;;;;;;;12.43;4.50;;;13.10;91.90;;;;;;5013187;28;20038;-47
2023/05/18 07:43:38;;;;;;;13.80;4.25;;;13.10;91.70;;;;;;5013456;28;20030;-47
2023/05/18 07:46:24;;;;;;;13.85;3.60;;;13.10;91.50;;;;;;5013789;28;20065;-49
2023/05/18 07:49:10;;;;;;;10.50;3.30;;;13.20;91.10;;;;;;5013446;28;20479;-50
2023/05/18 07:51:57;;;;;;;10.68;4.65;;;13.20;90.90;;;;;;5013242;28;20034;-47
2023/05/18 07:54:43;;;;;;;9.52;3.38;;;13.30;90.80;;;;;;5013181;28;20475;-48
2023/05/18 07:57:29;;;;;;;7.07;3.55;;;13.40;90.50;;;;;;5012809;28;20037;-47
2023/05/18 08:00:16;;;;;;;11.82;3.70;;;13.50;90.40;;;;;;5012515;28;20040;-51
2023/05/18 08:03:03;;;;;;;9.68;3.45;;;13.30;90.90;;;;;;5012620;28;20030;-48
2023/05/18 08:05:49;;;;;;;11.10;4.10;;;13.50;90.90;;;;;;5012434;28;20490;-47
2023/05/18 08:08:36;;;;;;;7.07;3.92;;;13.40;90.40;;;;;;5012697;28;20026;-48
2023/05/18 08:11:22;;;;;;;9.15;3.45;;;13.60;90.70;;;;;;5012242;28;20100;-53
2023/05/18 08:14:08;;;;;;;9.70;3.65;;;13.90;90.30;;;;;;5012558;28;20033;-49
2023/05/18 08:16:54;;;;;;;11.77;3.83;;;14.10;90.20;;;;;;5011465;28;20103;-49
2023/05/18 08:19:41;;;;;;;9.23;3.47;;;14.20;90.00;;;;;;5012759;28;20037;-47
2023/05/18 08:22:27;;;;;;;10.77;3.15;;;14.10;88.70;;;;;;5012729;28;20076;-50
2023/05/18 08:25:13;;;;;;;7.50;3.42;;;14.20;88.90;;;;;;5012729;28;20022;-51
2023/05/18 08:27:59;;;;;;;15.68;4.05;;;14.60;88.30;;;;;;5013057;28;20030;-49
2023/05/18 08:30:45;;;;;;;9.32;3.45;;;14.60;86.60;;;;;;5012931;28;20045;-49
2023/05/18 08:33:31;;;;;;;10.15;3.78;;;14.70;87.30;;;;;;5013178;28;20041;-49
2023/05/18 08:36:17;;;;;;;9.93;3.83;;;14.80;85.40;;;;;;5011795;28;20080;-50
2023/05/18 08:39:04;;;;;;;6.55;3.03;;;14.80;84.90;;;;;;5012639;28;20033;-49
2023/05/18 08:42:06;;;;;;;8.18;3.33;;;14.70;84.30;;;;;;5012090;28;20030;-49
2023/05/18 08:45:11;;;;;;;10.05;3.95;;;14.60;84.30;;;;;;5012665;28;20026;-48
2023/05/18 08:48:00;;;;;;;11.60;3.58;;;14.70;84.80;;;;;;5014760;28;20029;-49
2023/05/18 08:50:48;;;;;;;19.70;9.10;;;14.80;85.20;;;;;;5013452;28;20034;-50
2023/05/18 08:53:37;;;;;;;10.32;3.92;;;14.90;85.00;;;;;;5011484;28;20030;-52
2023/05/18 08:56:25;;;;;;;10.75;3.70;;;15.30;84.20;;;;;;5011532;28;20026;-48
2023/05/18 08:59:13;;;;;;;9.82;3.45;;;15.50;83.30;;;;;;5012004;28;20036;-49
2023/05/18 09:01:59;;;;;;;11.23;3.92;;;15.70;83.20;;;;;;5011334;28;20037;-51
2023/05/18 09:04:47;;;;;;;7.28;3.35;;;15.70;83.40;;;;;;5012799;28;20157;-49
2023/05/18 09:07:33;;;;;;;9.60;3.72;;;15.70;82.30;;;;;;5011744;28;20026;-48
2023/05/18 09:10:20;;;;;;;10.25;3.75;;;15.60;82.20;;;;;;5012318;28;20026;-49
2023/05/18 09:13:08;;;;;;;47.50;27.25;;;15.40;82.50;;;;;;5012837;28;20657;-49
2023/05/18 09:15:54;;;;;;;11.38;5.00;;;15.40;83.10;;;;;;5013122;28;20080;-52
2023/05/18 09:18:40;;;;;;;9.23;3.58;;;15.70;82.70;;;;;;5013192;28;20517;-50
2023/05/18 09:21:28;;;;;;;8.10;3.50;;;16.00;82.20;;;;;;5009597;28;20716;-49
2023/05/18 09:24:14;;;;;;;10.60;3.45;;;16.20;80.90;;;;;;5001670;28;20141;-48
2023/05/18 09:27:01;;;;;;;8.20;3.45;;;15.90;81.90;;;;;;4996893;28;20472;-48
2023/05/18 09:29:55;;;;;;;8.23;3.70;;;15.70;81.80;;;;;;5006510;28;20088;-50
2023/05/18 09:32:41;;;;;;;8.30;3.17;;;15.40;82.20;;;;;;4993065;28;20026;-49
2023/05/18 09:35:27;;;;;;;9.02;3.50;;;15.50;82.00;;;;;;4991420;28;20289;-50
2023/05/18 09:38:20;;;;;;;7.05;3.40;;;15.40;79.80;;;;;;5007716;28;20049;-48
2023/05/18 09:41:11;;;;;;;8.43;3.50;;;15.70;80.30;;;;;;4991853;28;20499;-47
2023/05/18 09:43:57;;;;;;;8.23;3.42;;;16.00;80.00;;;;;;4992371;28;20038;-48
2023/05/18 09:46:43;;;;;;;9.10;3.33;;;16.00;79.00;;;;;;4993370;28;20026;-47
2023/05/18 09:49:29;;;;;;;7.90;3.17;;;15.60;79.10;;;;;;5022658;28;20030;-47
2023/05/18 09:52:16;;;;;;;10.75;4.53;;;15.30;80.30;;;;;;5010857;28;20030;-50
2023/05/18 09:55:04;;;;;;;10.55;3.50;;;14.90;80.90;;;;;;5011090;28;20546;-48
2023/05/18 09:57:50;;;;;;;12.10;3.70;;;15.00;81.70;;;;;;4991070;28;20117;-48
2023/05/18 10:00:41;;;;;;;8.88;3.78;;;15.10;81.50;;;;;;4992022;28;20030;-48
2023/05/18 10:03:36;;;;;;;12.27;5.95;;;15.40;80.50;;;;;;4992221;28;20032;-51
2023/05/18 10:06:26;;;;;;;7.88;3.78;;;15.60;80.10;;;;;;4992223;28;20566;-51
2023/05/18 10:09:18;;;;;;;10.93;3.70;;;15.30;79.20;;;;;;5012174;28;20653;-49
2023/05/18 10:12:13;;;;;;;8.18;3.20;;;15.00;80.30;;;;;;5011387;28;20402;-47
2023/05/18 10:14:59;;;;;;;9.20;3.88;;;15.10;80.10;;;;;;5010181;28;20026;-48
2023/05/18 10:17:47;;;;;;;9.93;3.85;;;15.10;80.00;;;;;;5011155;28;20026;-47
2023/05/18 10:20:33;;;;;;;9.07;3.97;;;15.00;80.00;;;;;;5010812;28;20160;-47
2023/05/18 10:23:20;;;;;;;9.05;3.20;;;14.90;79.30;;;;;;5002827;28;20034;-49
2023/05/18 10:26:08;;;;;;;7.30;3.65;;;15.00;79.10;;;;;;4992044;28;20085;-48
2023/05/18 10:28:56;;;;;;;8.05;4.38;;;15.30;78.90;;;;;;5010789;28;20483;-50
2023/05/18 10:31:44;;;;;;;6.25;3.22;;;15.50;77.70;;;;;;5010547;28;20046;-50
2023/05/18 10:34:32;;;;;;;9.93;3.38;;;15.80;77.30;;;;;;5010797;28;20092;-49
2023/05/18 10:37:20;;;;;;;7.55;3.47;;;15.50;78.90;;;;;;5010427;28;20032;-49
2023/05/18 10:40:11;;;;;;;8.35;4.00;;;15.40;79.60;;;;;;5012654;28;20030;-49
2023/05/18 10:42:57;;;;;;;8.80;3.28;;;15.40;79.40;;;;;;5014856;28;20030;-47
2023/05/18 10:45:56;;;;;;;8.73;3.25;;;15.30;79.70;;;;;;5014537;28;20030;-47
2023/05/18 10:48:47;;;;;;;10.00;3.90;;;15.60;80.60;;;;;;5013960;28;20041;-50
2023/05/18 10:51:34;;;;;;;8.38;2.97;;;16.00;77.10;;;;;;5014608;28;20022;-47
2023/05/18 10:54:22;;;;;;;9.70;3.88;;;15.60;77.80;;;;;;5013292;28;20068;-48
2023/05/18 10:57:12;;;;;;;10.80;3.13;;;15.70;78.40;;;;;;5013272;28;20065;-50
2023/05/18 10:59:58;;;;;;;11.20;3.75;;;15.50;77.10;;;;;;5012947;28;20164;-50
2023/05/18 11:02:44;;;;;;;8.98;3.45;;;15.30;77.20;;;;;;5013246;28;20033;-50
2023/05/18 11:05:30;;;;;;;7.93;3.17;;;15.40;77.20;;;;;;5012422;28;20033;-49
2023/05/18 11:08:26;;;;;;;7.22;3.45;;;15.60;77.20;;;;;;5013676;28;20054;-49
2023/05/18 11:11:12;;;;;;;9.90;3.30;;;16.20;76.20;;;;;;5013095;28;20030;-48
2023/05/18 11:14:00;;;;;;;7.43;3.30;;;16.70;75.50;;;;;;5013917;28;20058;-48
2023/05/18 11:16:46;;;;;;;8.30;3.58;;;17.00;74.90;;;;;;5012833;28;20038;-48
2023/05/18 11:19:32;;;;;;;8.05;3.05;;;17.30;74.30;;;;;;5012695;28;20037;-50
2023/05/18 11:22:18;;;;;;;6.97;3.08;;;17.60;73.50;;;;;;5012508;28;20125;-50
2023/05/18 11:25:07;;;;;;;7.72;3.35;;;17.50;73.20;;;;;;5012843;28;20034;-53
2023/05/18 11:28:04;;;;;;;6.00;3.47;;;17.50;72.50;;;;;;5014313;28;20019;-50
2023/05/18 11:30:50;;;;;;;8.85;3.55;;;17.40;73.30;;;;;;5014296;28;20026;-51
2023/05/18 11:33:41;;;;;;;5.53;2.85;;;17.10;72.60;;;;;;5013590;28;20383;-49
2023/05/18 11:36:27;;;;;;;8.30;3.35;;;16.80;72.70;;;;;;5000985;28;20050;-49
2023/05/18 11:39:23;;;;;;;7.80;3.45;;;16.40;73.60;;;;;;5010810;28;20022;-53
2023/05/18 11:42:13;;;;;;;10.85;4.38;;;16.90;74.40;;;;;;5023813;28;20037;-51
2023/05/18 11:45:08;;;;;;;7.85;3.00;;;17.50;73.70;;;;;;4996400;28;20113;-50
2023/05/18 11:47:55;;;;;;;;;;;17.60;71.90;;;;;;5015161;28;20041;-49
2023/05/18 11:50:45;;;;;;;8.27;3.42;;;16.80;72.40;;;;;;5033484;28;19909;-50
2023/05/18 11:53:33;;;;;;;5.68;2.97;;;16.10;73.20;;;;;;5031114;28;20112;-53
2023/05/18 11:56:20;;;;;;;8.60;3.17;;;15.90;73.80;;;;;;5033335;28;20092;-50
2023/05/18 11:59:13;;;;;;;6.93;3.17;;;16.30;75.00;;;;;;5045429;28;20037;-53
2023/05/18 12:02:02;;;;;;;10.32;3.25;;;16.60;73.50;;;;;;5032829;28;20360;-53
2023/05/18 12:04:51;;;;;;;5.85;3.50;;;16.40;73.40;;;;;;5025149;28;20570;-49
2023/05/18 12:07:39;;;;;;;9.55;3.42;;;16.40;74.30;;;;;;5013081;28;20030;-55
2023/05/18 12:10:25;;;;;;;12.18;6.13;;;16.40;75.10;;;;;;5005762;28;20072;-49
2023/05/18 12:13:15;;;;;;;10.55;4.95;;;16.70;74.50;;;;;;5012225;28;20029;-52
2023/05/18 12:16:01;;;;;;;13.77;5.60;;;16.90;74.10;;;;;;5012252;28;20034;-51
2023/05/18 12:18:49;;;;;;;10.80;5.55;;;16.90;74.00;;;;;;5011400;28;20080;-50
2023/05/18 12:21:35;;;;;;;7.53;3.42;;;17.00;73.70;;;;;;5011854;28;20034;-52
2023/05/18 12:24:21;;;;;;;10.15;3.08;;;17.50;73.50;;;;;;5011715;28;20161;-50
2023/05/18 12:27:10;;;;;;;9.45;3.67;;;17.80;72.90;;;;;;4992176;28;20510;-49
2023/05/18 12:29:56;;;;;;;7.32;2.58;;;18.10;71.30;;;;;;4995888;28;20101;-53
2023/05/18 12:32:51;;;;;;;7.97;3.17;;;18.20;71.10;;;;;;5011431;28;20065;-49
2023/05/18 12:35:37;;;;;;;9.77;3.70;;;18.10;69.20;;;;;;4997575;28;20033;-52
2023/05/18 12:38:26;;;;;;;10.38;3.05;;;17.80;71.30;;;;;;5009730;28;20064;-51
2023/05/18 12:41:21;;;;;;;6.38;3.00;;;17.80;70.20;;;;;;5010287;28;20037;-51
2023/05/18 12:44:07;;;;;;;9.13;3.40;;;17.90;70.30;;;;;;4999439;28;20034;-52
2023/05/18 12:46:54;;;;;;;10.43;4.18;;;17.80;70.00;;;;;;4999464;28;20079;-47
2023/05/18 12:49:46;;;;;;;7.88;3.60;;;17.70;71.30;;;;;;5010195;28;20100;-52
2023/05/18 12:52:32;;;;;;;8.48;3.20;;;17.90;70.70;;;;;;5009943;28;20030;-53
2023/05/18 12:55:20;;;;;;;8.00;3.40;;;18.20;70.50;;;;;;5010594;28;20113;-49
2023/05/18 12:58:17;;;;;;;10.30;3.13;;;18.70;71.10;;;;;;5009705;28;20030;-49
2023/05/18 13:01:08;;;;;;;8.35;2.80;;;19.00;70.10;;;;;;5007302;28;20068;-48
2023/05/18 13:03:58;;;;;;;7.13;3.40;;;19.50;69.80;;;;;;5003655;28;20549;-49
2023/05/18 13:06:44;;;;;;;7.10;3.17;;;19.60;68.40;;;;;;5012204;28;20085;-46
2023/05/18 13:09:30;;;;;;;7.38;3.42;;;18.90;68.70;;;;;;5015605;28;20057;-46
2023/05/18 13:12:16;;;;;;;7.00;3.08;;;18.10;70.70;;;;;;5020026;28;20030;-50
2023/05/18 13:15:33;;;;;;;10.20;3.20;;;18.20;71.20;;;;;;5013084;28;20044;-49
2023/05/18 13:18:19;;;;;;;9.80;3.55;;;18.90;70.00;;;;;;4993038;28;20030;-50
2023/05/18 13:21:06;;;;;;;7.65;3.60;;;18.50;69.80;;;;;;4997650;28;20030;-51
2023/05/18 13:23:52;;;;;;;7.20;3.05;;;18.40;69.70;;;;;;5011243;28;20052;-53
2023/05/18 13:26:39;;;;;;;5.75;3.15;;;18.20;70.20;;;;;;5011303;28;20088;-51
2023/05/18 13:29:25;;;;;;;8.88;3.53;;;18.20;70.00;;;;;;5011222;28;20049;-50
2023/05/18 13:32:11;;;;;;;9.23;3.20;;;18.00;70.70;;;;;;5011218;28;20053;-50
2023/05/18 13:34:57;;;;;;;6.15;3.28;;;17.90;70.30;;;;;;5003290;28;20384;-50
2023/05/18 13:37:45;;;;;;;6.45;3.42;;;17.90;68.60;;;;;;5005227;28;20038;-51
2023/05/18 13:40:31;;;;;;;8.68;3.25;;;17.90;68.70;;;;;;5001584;28;20062;-47
2023/05/18 13:43:17;;;;;;;8.05;3.03;;;18.00;68.60;;;;;;5011486;28;20103;-50
2023/05/18 13:46:03;;;;;;;6.40;3.47;;;18.20;68.00;;;;;;5010216;28;20030;-50
2023/05/18 13:48:49;;;;;;;6.80;3.50;;;18.50;68.40;;;;;;5010206;28;20030;-50
2023/05/18 13:51:35;;;;;;;9.98;3.58;;;18.70;67.10;;;;;;5009588;28;20168;-50
2023/05/18 13:54:21;;;;;;;5.97;3.08;;;18.80;67.10;;;;;;5031074;28;20032;-52
2023/05/18 13:57:07;;;;;;;8.15;3.15;;;18.90;67.40;;;;;;5018131;28;20068;-51
2023/05/18 13:59:53;;;;;;;7.88;3.10;;;19.00;66.90;;;;;;5011385;28;20038;-50
2023/05/18 14:02:40;;;;;;;5.18;2.80;;;18.80;68.10;;;;;;5010968;28;20026;-51
2023/05/18 14:05:26;;;;;;;6.53;3.10;;;18.90;69.10;;;;;;5011211;28;20018;-51
2023/05/18 14:08:12;;;;;;;7.43;3.40;;;18.80;68.80;;;;;;5014372;28;20109;-50
2023/05/18 14:10:58;;;;;;;8.88;3.35;;;18.20;68.60;;;;;;5032237;28;20041;-52
2023/05/18 14:13:44;;;;;;;9.18;3.22;;;18.10;69.00;;;;;;5033931;28;20029;-53
2023/05/18 14:16:30;;;;;;;12.48;3.45;;;18.30;68.70;;;;;;5034312;28;20565;-50
2023/05/18 14:19:15;;;;;;;8.48;2.90;;;18.30;67.70;;;;;;5034539;28;20021;-54
2023/05/18 14:22:01;;;;;;;8.30;2.97;;;18.30;68.20;;;;;;5035740;28;20025;-52
2023/05/18 14:24:48;;;;;;;5.50;2.72;;;18.30;68.30;;;;;;5035359;28;20057;-52
2023/05/18 14:27:34;;;;;;;5.88;3.08;;;18.30;68.60;;;;;;5023200;28;20045;-50
2023/05/18 14:30:20;;;;;;;4.88;2.80;;;18.40;68.70;;;;;;5014377;28;20084;-51